To NAV CANADA Home Page Login to a new session Search on AWWS site Feedback and Comments Disclaimer Vers la page française équivalente Tips FAQ What's new on the site To the Forecasts and Observations / NOTAM section To "File a Flight Plan" website Publications and other links Update of the User's profile FIC Telephone Numbers My Weather Data Folder Route Weather Data Regional Weather Data Local Weather Data To the Forecasts and Observations / NOTAM section
Request Generated 04/30/2017 at 04:59:37 UTC . Weather information available at that time is displayed.

METAR/TAF

WINDSOR/ON    

SPECI CYQG 300450Z 05015G26KT 10SM -SHRA BKN037 OVC120 06/02 A3012
RMK CU6AS2 PRESFR SLP206=
METAR CYQG 300400Z 04021G30KT 15SM SCT039 BKN088 OVC240 06/01 A3013
RMK SC3AS3CS2 PRESFR SLP210=
METAR CYQG 300300Z 03016G23KT 15SM OVC038 06/01 A3021 RMK SC8 PRESFR
SLP236=
METAR CYQG 300200Z 03014G19KT 15SM SCT039 OVC049 06/01 A3023 RMK
SC4SC4 PRESRR SLP243=

TAF AMD CYQG 300451Z 3004/3024 04020G30KT P6SM -SHRA BKN040 TEMPO
3005/3008 11/2SM +TSRA BR BKN008CB
FM300800 07015G25KT P6SM -SHRA OVC025 PROB30 3008/3011 2SM +TSRA
BR BKN012CB
FM301100 05012G22KT 5SM -SHRA BR OVC012
FM301500 07012KT 5SM BR OVC008
FM302100 15012G22KT P6SM BKN040
RMK NXT FCST BY 300600Z=
Your time UTC time
Weather data provided by Environment Canada and NAV CANADA